NK74 weather

Match Mate Airport
Aurora, New York, United States

Public forecast

Using degrees Fahrenheit for public forecast. Weather courtesy of forecast.io.

Closest aviation weather report (METAR) to Match Mate Airport

Closest report is Ithaca Tompkins Regional Airport, 17.7 nm (32.8 km) SSE. Retrieved 2020/08/07 12:32 UTC (11 minutes ago):

KITH 071232Z 11004KT 10SM BKN013 18/16 A3019 RMK AO2

Closest aviation forecast (TAF) to Match Mate Airport

Closest forecast is Ithaca Tompkins Regional Airport, 17.7 nm (32.8 km) SSE. Retrieved 2020/08/07 12:22 UTC (21 minutes ago):

TAF KITH 071120Z 0712/0812 VRB03KT P6SM BKN060 FM071500 VRB03KT P6SM BKN025 FM071800 VRB03KT P6SM -SHRA BKN035 TEMPO 0719/0721 4SM -TSRA BR OVC025CB FM072300 VRB03KT P6SM BKN050 FM080500 00000KT 4SM BR SCT025 FM080700 00000KT 2SM BR BKN009